Time;durP1;ratioP1;P1;durP2;ratioP2;P2;SDS_P1;SDS_P2;PMS_P1;PMS_P2;Temp;Humidity;BMP_temperature;BMP_pressure;BME280_temperature;BME280_humidity;BME280_pressure;Samples;Min_cycle;Max_cycle;Signal;HPM_P1;HPM_P2
2023/08/19 00:01:05;;;;;;;11.40;10.40;;;;;;;18.32;100.00;96763.58;107349;1272;138663;-90
2023/08/19 00:03:33;;;;;;;11.50;10.30;;;;;;;18.31;100.00;96765.81;107529;1272;23287;-90
2023/08/19 00:06:05;;;;;;;14.00;11.10;;;;;;;18.31;100.00;96771.04;107364;1273;138211;-89
2023/08/19 00:08:31;;;;;;;;;;;;;;;18.33;100.00;96775.98;107367;1273;24180;-89
2023/08/19 00:10:58;;;;;;;10.90;9.80;;;;;;;18.35;100.00;96776.60;107376;1279;22533;-90
2023/08/19 00:13:25;;;;;;;11.20;10.10;;;;;;;18.37;100.00;96777.19;107608;1272;139073;-90
2023/08/19 00:15:51;;;;;;;13.30;10.70;;;;;;;18.39;100.00;96781.79;107617;1272;22544;-90
2023/08/19 00:18:18;;;;;;;11.90;10.80;;;;;;;18.41;100.00;96779.42;107361;1272;138943;-89
2023/08/19 00:20:44;;;;;;;11.40;10.10;;;;;;;18.43;100.00;96783.73;107547;1275;22664;-90
2023/08/19 00:23:11;;;;;;;13.70;11.50;;;;;;;18.44;100.00;96782.30;107630;1272;22505;-89
2023/08/19 00:25:38;;;;;;;11.10;9.80;;;;;;;18.43;100.00;96781.62;107672;1272;137993;-90
2023/08/19 00:28:04;;;;;;;12.10;9.90;;;;;;;18.41;100.00;96778.85;107290;1272;25448;-89
2023/08/19 00:30:31;;;;;;;12.00;10.70;;;;;;;18.40;100.00;96776.24;107317;1275;138052;-90
2023/08/19 00:32:59;;;;;;;10.70;9.80;;;;;;;18.39;100.00;96772.00;107251;1273;22554;-89
2023/08/19 00:35:25;;;;;;;10.90;9.90;;;;;;;18.36;100.00;96771.70;107318;1276;138008;-89
2023/08/19 00:37:52;;;;;;;10.50;9.60;;;;;;;18.34;100.00;96770.74;107427;1275;25428;-89
2023/08/19 00:40:19;;;;;;;11.90;10.70;;;;;;;18.33;100.00;96772.14;107924;1272;22705;-91
2023/08/19 00:42:45;;;;;;;11.20;10.10;;;;;;;18.33;100.00;96773.40;107650;1273;138163;-90
2023/08/19 00:45:12;;;;;;;11.50;10.10;;;;;;;18.34;100.00;96773.70;107371;1275;24832;-89
2023/08/19 00:47:39;;;;;;;11.00;9.80;;;;;;;18.34;100.00;96772.61;107238;1272;138161;-90
2023/08/19 00:50:07;;;;;;;11.20;10.00;;;;;;;18.32;100.00;96771.74;107350;1277;24202;-89
2023/08/19 00:52:34;;;;;;;11.30;10.30;;;;;;;18.33;100.00;96775.39;107300;1279;22582;-89
2023/08/19 00:55:02;;;;;;;12.30;10.80;;;;;;;18.34;100.00;96778.00;107264;1273;138197;-88
2023/08/19 00:57:28;;;;;;;12.80;9.90;;;;;;;18.33;100.00;96773.02;107238;1272;22939;-90
2023/08/19 00:59:55;;;;;;;11.70;10.00;;;;;;;18.31;100.00;96770.31;107624;1272;139120;-90
2023/08/19 01:02:22;;;;;;;11.50;10.50;;;;;;;18.31;100.00;96768.23;107775;1275;22552;-90
2023/08/19 01:04:49;;;;;;;12.30;10.10;;;;;;;18.31;100.00;96767.23;107620;1273;23395;-90
2023/08/19 01:07:42;;;;;;;14.00;11.30;;;;;;;18.28;100.00;96762.08;107552;1269;139240;-90
2023/08/19 01:10:48;;;;;;;12.00;10.50;;;;;;;18.28;100.00;96764.70;107469;1274;22539;-90
2023/08/19 01:13:15;;;;;;;11.10;9.90;;;;;;;18.25;100.00;96763.34;107557;1270;138334;-90
2023/08/19 01:16:18;;;;;;;10.80;9.70;;;;;;;18.23;100.00;96761.63;107519;1272;25280;-90
2023/08/19 01:18:44;;;;;;;;;;;;;;;18.21;100.00;96759.96;107129;1277;138853;-90
2023/08/19 01:21:11;;;;;;;12.90;10.70;;;;;;;18.18;100.00;96752.73;107576;1272;22530;-90
2023/08/19 01:23:42;;;;;;;11.90;10.90;;;;;;;18.17;100.00;96754.33;107508;1275;138356;-90
2023/08/19 01:26:09;;;;;;;12.00;11.00;;;;;;;18.17;100.00;96758.81;107421;1272;22669;-89
2023/08/19 01:28:35;;;;;;;12.60;10.60;;;;;;;18.20;100.00;96763.87;107477;1273;22533;-90
2023/08/19 01:31:02;;;;;;;13.70;12.40;;;;;;;18.23;100.00;96766.29;107339;1274;139010;-89
2023/08/19 01:33:29;;;;;;;12.20;11.10;;;;;;;18.24;100.00;96771.33;107473;1272;22628;-89
2023/08/19 01:35:56;;;;;;;13.00;10.80;;;;;;;18.25;100.00;96772.05;107382;1267;138367;-89
2023/08/19 01:38:40;;;;;;;13.10;10.70;;;;;;;18.26;100.00;96771.11;107363;1272;23840;-89
2023/08/19 01:41:06;;;;;;;12.60;10.40;;;;;;;18.25;100.00;96773.58;107397;1276;22541;-89
2023/08/19 01:43:33;;;;;;;11.10;10.10;;;;;;;18.25;100.00;96772.56;107209;1276;138201;-90
2023/08/19 01:46:00;;;;;;;11.50;10.50;;;;;;;18.25;100.00;96777.63;107314;1272;22906;-90
2023/08/19 01:48:26;;;;;;;11.60;10.50;;;;;;;18.25;100.00;96777.35;107363;1272;138430;-89
2023/08/19 01:50:53;;;;;;;11.80;10.60;;;;;;;18.24;100.00;96775.90;107282;1279;22647;-89
2023/08/19 01:53:19;;;;;;;12.60;11.20;;;;;;;18.23;100.00;96775.35;107276;1272;22670;-90
2023/08/19 01:55:46;;;;;;;12.40;10.80;;;;;;;18.21;100.00;96772.92;107248;1272;138468;-89
2023/08/19 01:58:12;;;;;;;12.40;11.20;;;;;;;18.20;100.00;96770.50;107523;1272;22606;-89
2023/08/19 02:00:39;;;;;;;12.10;11.00;;;;;;;18.19;100.00;96772.99;107268;1276;138216;-90
2023/08/19 02:03:07;;;;;;;12.20;11.00;;;;;;;18.17;100.00;96769.37;107374;1278;22534;-91
2023/08/19 02:05:34;;;;;;;12.40;11.40;;;;;;;18.15;100.00;96770.29;107350;1268;139511;-89
2023/08/19 02:08:00;;;;;;;12.90;11.50;;;;;;;18.14;100.00;96770.62;107475;1274;23867;-89
2023/08/19 02:10:27;;;;;;;12.10;10.90;;;;;;;18.13;100.00;96769.31;107562;1271;22519;-90
2023/08/19 02:12:53;;;;;;;13.40;11.40;;;;;;;18.12;100.00;96769.13;107232;1278;139379;-89
2023/08/19 02:15:20;;;;;;;12.20;10.90;;;;;;;18.11;100.00;96768.52;107495;1270;22533;-88
2023/08/19 02:17:47;;;;;;;12.80;11.50;;;;;;;18.10;100.00;96767.80;107359;1270;138491;-89
2023/08/19 02:20:14;;;;;;;12.80;11.50;;;;;;;18.08;100.00;96766.09;107271;1273;22555;-88
2023/08/19 02:22:40;;;;;;;13.50;11.40;;;;;;;18.08;100.00;96765.98;107516;1272;22563;-90
2023/08/19 02:25:07;;;;;;;12.30;11.10;;;;;;;18.07;100.00;96764.65;107266;1277;139230;-89
2023/08/19 02:27:36;;;;;;;12.60;11.30;;;;;;;18.07;100.00;96762.79;107202;1272;25288;-89
2023/08/19 02:30:04;;;;;;;12.20;11.10;;;;;;;18.07;100.00;96766.15;107295;1272;138627;-90
2023/08/19 02:32:31;;;;;;;12.80;11.60;;;;;;;18.06;100.00;96766.06;107613;1277;23271;-90
2023/08/19 02:35:00;;;;;;;12.90;11.80;;;;;;;18.07;100.00;96772.85;107727;1270;24509;-90
2023/08/19 02:37:26;;;;;;;12.70;11.50;;;;;;;18.07;100.00;96771.61;107299;1275;139781;-90
2023/08/19 02:39:53;;;;;;;12.00;10.90;;;;;;;18.06;100.00;96773.45;107499;1270;22566;-89
2023/08/19 02:42:20;;;;;;;13.10;12.00;;;;;;;18.05;100.00;96774.91;107648;1271;138950;-89
2023/08/19 02:44:46;;;;;;;13.60;12.10;;;;;;;18.06;100.00;96776.82;107816;1272;22633;-88
2023/08/19 02:47:13;;;;;;;14.20;12.60;;;;;;;18.06;100.00;96779.78;107394;1272;22644;-90
2023/08/19 02:49:39;;;;;;;13.00;11.90;;;;;;;18.05;100.00;96779.33;107357;1272;138405;-89
2023/08/19 02:52:06;;;;;;;13.20;11.80;;;;;;;18.05;100.00;96776.34;107703;1270;22747;-90
2023/08/19 02:54:33;;;;;;;14.40;12.30;;;;;;;18.06;100.00;96776.65;107367;1272;138532;-91
2023/08/19 02:56:59;;;;;;;13.20;12.00;;;;;;;18.07;100.00;96778.56;107432;1272;22586;-89
2023/08/19 02:59:26;;;;;;;13.70;12.40;;;;;;;18.08;100.00;96779.92;107205;1272;138557;-89
2023/08/19 03:01:52;;;;;;;13.70;12.40;;;;;;;18.09;100.00;96777.82;107569;1269;22658;-89
2023/08/19 03:04:19;;;;;;;14.70;13.50;;;;;;;18.10;100.00;96778.48;107746;1272;23864;-91
2023/08/19 03:06:47;;;;;;;14.70;12.60;;;;;;;18.12;100.00;96779.64;107336;1274;138755;-90
2023/08/19 03:09:13;;;;;;;13.50;12.10;;;;;;;18.13;100.00;96778.25;107511;1272;22523;-90
2023/08/19 03:11:41;;;;;;;16.50;13.60;;;;;;;18.14;100.00;96778.85;107465;1272;139050;-89
2023/08/19 03:14:08;;;;;;;14.10;12.80;;;;;;;18.15;100.00;96779.63;107543;1278;24062;-90
2023/08/19 03:16:34;;;;;;;14.20;13.00;;;;;;;18.16;100.00;96777.60;107455;1276;22573;-89
2023/08/19 03:19:01;;;;;;;14.00;12.40;;;;;;;18.17;100.00;96780.27;107408;1273;138418;-90
2023/08/19 03:21:27;;;;;;;14.10;12.80;;;;;;;18.17;100.00;96778.95;107695;1276;22545;-89
2023/08/19 03:23:54;;;;;;;14.80;13.40;;;;;;;18.19;100.00;96782.98;107262;1274;139248;-89
2023/08/19 03:26:21;;;;;;;14.60;13.40;;;;;;;18.20;100.00;96789.65;107418;1275;22545;-89
2023/08/19 03:28:47;;;;;;;15.20;12.80;;;;;;;18.20;100.00;96794.66;107410;1266;23124;-89
2023/08/19 03:31:14;;;;;;;15.50;14.00;;;;;;;18.20;100.00;96794.49;107352;1273;139482;-89
2023/08/19 03:33:41;;;;;;;14.20;12.80;;;;;;;18.21;100.00;96798.61;107562;1271;23927;-90
2023/08/19 03:36:08;;;;;;;14.90;13.50;;;;;;;18.21;100.00;96805.00;107782;1271;138731;-89
2023/08/19 03:38:34;;;;;;;14.20;12.90;;;;;;;18.22;100.00;96806.63;107363;1272;23626;-89
2023/08/19 03:41:01;;;;;;;15.40;13.80;;;;;;;18.24;100.00;96802.36;107261;1272;22565;-89
2023/08/19 03:43:27;;;;;;;16.40;14.40;;;;;;;18.27;100.00;96804.44;107761;1272;138573;-90
2023/08/19 03:45:54;;;;;;;15.40;13.90;;;;;;;18.29;100.00;96806.80;107914;1266;22534;-90
2023/08/19 03:48:21;;;;;;;15.00;13.70;;;;;;;18.31;100.00;96810.02;107577;1272;139734;-89
2023/08/19 03:50:47;;;;;;;14.70;13.30;;;;;;;18.33;100.00;96808.48;107460;1272;22649;-90
2023/08/19 03:53:14;;;;;;;14.90;13.40;;;;;;;18.34;100.00;96809.57;107471;1274;22534;-90
2023/08/19 03:55:40;;;;;;;16.40;14.70;;;;;;;18.33;100.00;96808.97;107569;1279;139200;-90
2023/08/19 03:58:07;;;;;;;15.20;13.80;;;;;;;18.33;100.00;96810.42;107729;1279;22532;-91
2023/08/19 04:00:34;;;;;;;14.80;13.30;;;;;;;18.33;100.00;96813.48;107574;1272;138920;-90
2023/08/19 04:03:00;;;;;;;15.00;13.50;;;;;;;18.34;100.00;96816.40;107600;1274;22619;-90
2023/08/19 04:05:28;;;;;;;14.70;13.30;;;;;;;18.34;100.00;96815.67;107315;1279;139896;-89
2023/08/19 04:07:54;;;;;;;14.40;13.00;;;;;;;18.34;100.00;96810.58;107512;1279;25412;-90
2023/08/19 04:10:21;;;;;;;14.10;12.90;;;;;;;18.35;100.00;96808.48;107748;1272;22782;-91
2023/08/19 04:12:48;;;;;;;15.50;14.10;;;;;;;18.35;100.00;96806.39;107654;1272;139063;-90
2023/08/19 04:15:14;;;;;;;14.90;13.40;;;;;;;18.37;100.00;96806.73;107766;1275;22962;-90
2023/08/19 04:17:41;;;;;;;15.20;13.70;;;;;;;18.36;100.00;96809.36;107722;1272;138672;-91
2023/08/19 04:20:08;;;;;;;15.60;14.20;;;;;;;18.37;100.00;96806.64;107763;1270;22855;-90
2023/08/19 04:22:36;;;;;;;13.90;12.70;;;;;;;18.38;100.00;96808.83;107794;1279;22594;-90
2023/08/19 04:25:04;;;;;;;14.20;12.80;;;;;;;18.39;100.00;96809.52;107731;1272;138437;-91
2023/08/19 04:27:31;;;;;;;13.70;12.50;;;;;;;18.40;100.00;96811.38;107704;1273;23066;-90
2023/08/19 04:29:58;;;;;;;14.60;13.30;;;;;;;18.39;100.00;96806.05;107624;1274;138960;-90
2023/08/19 04:32:24;;;;;;;15.20;13.60;;;;;;;18.40;100.00;96808.75;107757;1273;22546;-90
2023/08/19 04:34:51;;;;;;;15.00;13.70;;;;;;;18.41;100.00;96807.31;107600;1272;23215;-89
2023/08/19 04:37:17;;;;;;;14.80;13.40;;;;;;;18.41;100.00;96809.05;107785;1274;139534;-90
2023/08/19 04:39:44;;;;;;;15.50;14.00;;;;;;;18.42;100.00;96810.65;107636;1272;24537;-90
2023/08/19 04:42:11;;;;;;;13.60;12.40;;;;;;;18.43;100.00;96811.09;107493;1275;138598;-89
2023/08/19 04:44:37;;;;;;;14.90;13.50;;;;;;;18.44;100.00;96810.06;107833;1276;22580;-91
2023/08/19 04:47:04;;;;;;;14.70;13.20;;;;;;;18.45;100.00;96810.62;107691;1274;22550;-91
2023/08/19 04:49:30;;;;;;;14.40;13.10;;;;;;;18.46;100.00;96810.48;107626;1274;138606;-90
2023/08/19 04:51:58;;;;;;;14.10;13.00;;;;;;;18.47;100.00;96809.37;107735;1275;22541;-89
2023/08/19 04:54:25;;;;;;;14.80;13.20;;;;;;;18.48;100.00;96805.71;108028;1273;138683;-90
2023/08/19 04:56:52;;;;;;;15.40;13.90;;;;;;;18.51;100.00;96803.09;107633;1273;23903;-89
2023/08/19 04:59:19;;;;;;;16.00;14.40;;;;;;;18.53;100.00;96803.06;107472;1272;22590;-89
2023/08/19 05:01:45;;;;;;;16.20;13.90;;;;;;;18.56;100.00;96796.20;107318;1272;137926;-89
2023/08/19 05:04:12;;;;;;;14.90;13.40;;;;;;;18.58;100.00;96796.58;107293;1273;22533;-89
2023/08/19 05:06:39;;;;;;;14.70;13.30;;;;;;;18.60;100.00;96803.11;107175;1275;138515;-89
2023/08/19 05:09:06;;;;;;;14.50;13.10;;;;;;;18.62;100.00;96806.36;107460;1272;25405;-90
2023/08/19 05:11:32;;;;;;;14.90;13.70;;;;;;;18.64;100.00;96809.11;107371;1272;138556;-89
2023/08/19 05:13:59;;;;;;;14.50;13.20;;;;;;;18.65;100.00;96813.73;107407;1270;22634;-89
2023/08/19 05:16:26;;;;;;;15.90;14.50;;;;;;;18.67;100.00;96816.35;107497;1272;22531;-90
2023/08/19 05:19:16;;;;;;;15.30;14.00;;;;;;;18.69;100.00;96818.30;107271;1279;138759;-90
2023/08/19 05:21:43;;;;;;;16.60;15.00;;;;;;;18.72;100.00;96826.92;107520;1265;22580;-90
2023/08/19 05:24:11;;;;;;;14.50;13.00;;;;;;;18.74;100.00;96823.34;107325;1278;139124;-89
2023/08/19 05:26:41;;;;;;;15.80;14.20;;;;;;;18.75;100.00;96824.73;107641;1272;22528;-91
2023/08/19 05:29:08;;;;;;;15.70;14.30;;;;;;;18.76;100.00;96820.98;107462;1277;23893;-89
2023/08/19 05:31:35;;;;;;;14.60;13.30;;;;;;;18.79;100.00;96819.79;107591;1272;139458;-91
2023/08/19 05:34:01;;;;;;;15.50;14.10;;;;;;;18.81;100.00;96824.96;107418;1270;25246;-89
2023/08/19 05:36:29;;;;;;;16.00;14.30;;;;;;;18.84;100.00;96824.80;107276;1272;138857;-89
2023/08/19 05:38:56;;;;;;;16.30;14.60;;;;;;;18.86;100.00;96827.36;107398;1275;22712;-89
2023/08/19 05:41:22;;;;;;;16.70;15.20;;;;;;;18.90;100.00;96824.30;107761;1274;22582;-89
2023/08/19 05:43:49;;;;;;;16.60;15.10;;;;;;;18.93;100.00;96826.32;107420;1270;139301;-90
2023/08/19 05:46:16;;;;;;;17.70;15.90;;;;;;;18.96;100.00;96822.02;107591;1274;22622;-90
2023/08/19 05:48:42;;;;;;;15.80;14.40;;;;;;;18.97;100.00;96819.64;107338;1270;138470;-90
2023/08/19 05:51:09;;;;;;;16.50;14.90;;;;;;;19.00;100.00;96823.39;107321;1272;23874;-89
2023/08/19 05:53:36;;;;;;;16.30;14.80;;;;;;;19.01;100.00;96825.80;107640;1278;139079;-90
2023/08/19 05:56:02;;;;;;;15.00;13.70;;;;;;;19.03;100.00;96829.34;107537;1276;22523;-90
2023/08/19 05:58:29;;;;;;;16.40;14.90;;;;;;;19.06;100.00;96830.36;107609;1270;22990;-89
2023/08/19 06:00:59;;;;;;;16.20;14.70;;;;;;;19.08;100.00;96831.63;107782;1279;139500;-90
2023/08/19 06:03:26;;;;;;;16.50;15.00;;;;;;;19.11;100.00;96829.34;107817;1279;23879;-89
2023/08/19 06:05:53;;;;;;;17.20;15.40;;;;;;;19.15;100.00;96827.52;107595;1272;139204;-91
2023/08/19 06:08:19;;;;;;;16.40;14.90;;;;;;;19.20;100.00;96826.70;107817;1277;25249;-91
2023/08/19 06:10:49;;;;;;;16.70;15.10;;;;;;;19.24;100.00;96827.86;107881;1272;22491;-90
2023/08/19 06:13:15;;;;;;;16.00;14.50;;;;;;;19.28;100.00;96827.16;107709;1274;138667;-89
2023/08/19 06:15:42;;;;;;;17.40;15.90;;;;;;;19.31;100.00;96823.98;107866;1272;24202;-91
2023/08/19 06:18:09;;;;;;;16.20;14.80;;;;;;;19.34;100.00;96823.48;107786;1275;139428;-89
2023/08/19 06:20:36;;;;;;;16.00;14.60;;;;;;;19.38;100.00;96825.91;107702;1274;22563;-89
2023/08/19 06:23:03;;;;;;;16.00;14.50;;;;;;;19.41;100.00;96827.97;107824;1274;22484;-90
2023/08/19 06:25:29;;;;;;;17.10;15.40;;;;;;;19.44;100.00;96833.42;108005;1274;138647;-90
2023/08/19 06:27:56;;;;;;;16.80;15.10;;;;;;;19.47;100.00;96835.81;108149;1280;22558;-90
2023/08/19 06:30:23;;;;;;;17.40;15.80;;;;;;;19.53;100.00;96837.33;107446;1274;138919;-90
2023/08/19 06:32:51;;;;;;;16.70;15.00;;;;;;;19.59;100.00;96842.13;108576;1275;24208;-91
2023/08/19 06:35:18;;;;;;;16.30;14.70;;;;;;;19.61;100.00;96845.89;108019;1272;23978;-89
2023/08/19 06:37:47;;;;;;;17.30;15.80;;;;;;;19.65;100.00;96841.73;107973;1272;138299;-90
2023/08/19 06:40:13;;;;;;;18.50;16.60;;;;;;;19.69;100.00;96840.05;108131;1278;24239;-89
2023/08/19 06:42:40;;;;;;;16.70;15.20;;;;;;;19.72;100.00;96842.77;107892;1272;138358;-89
2023/08/19 06:45:07;;;;;;;16.10;14.80;;;;;;;19.73;100.00;96840.32;107965;1278;22536;-91
2023/08/19 06:47:34;;;;;;;14.70;13.50;;;;;;;19.74;100.00;96843.57;107797;1273;138552;-89
2023/08/19 06:50:01;;;;;;;15.30;13.70;;;;;;;19.76;100.00;96843.90;107961;1274;22494;-90
2023/08/19 06:52:28;;;;;;;15.40;13.90;;;;;;;19.79;100.00;96845.67;108333;1279;22640;-90
2023/08/19 06:54:54;;;;;;;16.40;14.80;;;;;;;19.84;100.00;96845.67;108246;1272;138454;-90
2023/08/19 06:57:27;;;;;;;15.60;14.30;;;;;;;19.88;100.00;96848.27;107883;1278;23943;-90
2023/08/19 07:00:09;;;;;;;15.60;14.30;;;;;;;19.92;100.00;96852.81;108014;1272;138511;-91
2023/08/19 07:02:37;;;;;;;16.10;14.60;;;;;;;19.95;100.00;96857.53;107783;1275;22613;-90
2023/08/19 07:05:10;;;;;;;15.70;14.30;;;;;;;19.98;100.00;96861.17;107771;1275;25214;-91
2023/08/19 07:07:36;;;;;;;16.60;15.10;;;;;;;20.02;100.00;96866.19;107573;1273;138494;-90
2023/08/19 07:10:05;;;;;;;16.90;15.50;;;;;;;20.05;100.00;96870.80;107544;1279;25287;-85
2023/08/19 07:12:32;;;;;;;18.00;16.40;;;;;;;20.10;100.00;96871.69;107058;1272;140165;-87
2023/08/19 07:14:58;;;;;;;19.50;17.70;;;;;;;20.18;100.00;96871.23;107139;1279;27486;-88
2023/08/19 07:17:25;;;;;;;20.30;18.20;;;;;;;20.23;100.00;96872.04;107083;1278;25278;-88
2023/08/19 07:19:52;;;;;;;21.80;19.80;;;;;;;20.31;100.00;96876.26;107189;1275;22553;-87
2023/08/19 07:22:18;;;;;;;19.40;17.70;;;;;;;20.39;100.00;96877.88;107129;1275;24327;-86
2023/08/19 07:24:47;;;;;;;17.20;15.60;;;;;;;20.43;100.00;96877.24;107205;1272;138711;-88
2023/08/19 07:27:13;;;;;;;18.50;16.80;;;;;;;20.46;100.00;96880.10;107225;1272;23933;-87
2023/08/19 07:29:41;;;;;;;20.50;18.70;;;;;;;20.54;100.00;96883.40;107069;1272;139051;-86
2023/08/19 07:32:08;;;;;;;18.60;16.90;;;;;;;20.61;100.00;96879.53;107369;1272;22586;-86
2023/08/19 07:34:34;;;;;;;24.20;20.60;;;;;;;20.70;100.00;96878.61;107306;1275;24325;-86
2023/08/19 07:37:01;;;;;;;24.20;21.00;;;;;;;20.77;100.00;96883.74;106977;1276;138595;-87
2023/08/19 07:39:27;;;;;;;21.80;19.50;;;;;;;20.88;100.00;96886.83;107151;1272;22541;-87
2023/08/19 07:41:54;;;;;;;22.00;20.00;;;;;;;20.94;100.00;96891.31;107091;1272;138640;-87
2023/08/19 07:44:21;;;;;;;21.80;19.60;;;;;;;20.99;100.00;96889.52;107249;1272;24056;-87
2023/08/19 07:46:47;;;;;;;19.10;17.20;;;;;;;21.04;100.00;96890.83;107206;1275;22672;-87
2023/08/19 07:49:14;;;;;;;19.50;17.80;;;;;;;21.06;100.00;96891.48;107161;1272;139364;-87
2023/08/19 07:51:40;;;;;;;19.80;18.10;;;;;;;21.07;100.00;96890.16;107374;1268;25032;-86
2023/08/19 07:54:07;;;;;;;20.50;18.60;;;;;;;21.11;100.00;96887.99;107085;1277;138681;-87
2023/08/19 07:56:33;;;;;;;22.00;20.00;;;;;;;21.18;100.00;96885.34;107294;1271;22542;-86
2023/08/19 07:59:01;;;;;;;20.90;18.90;;;;;;;21.27;100.00;96891.12;107256;1272;22593;-86
2023/08/19 08:01:29;;;;;;;20.20;18.20;;;;;;;21.34;100.00;96895.97;107168;1271;138878;-87
2023/08/19 08:03:55;;;;;;;20.50;18.60;;;;;;;21.38;100.00;96900.25;107196;1276;22602;-87
2023/08/19 08:06:22;;;;;;;17.80;16.40;;;;;;;21.41;100.00;96897.41;107189;1271;138425;-87
2023/08/19 08:08:49;;;;;;;18.30;16.60;;;;;;;21.46;100.00;96895.80;107424;1276;23011;-88
2023/08/19 08:11:16;;;;;;;17.50;15.90;;;;;;;21.53;100.00;96900.52;107066;1272;23904;-87
2023/08/19 08:13:43;;;;;;;17.10;15.50;;;;;;;21.57;100.00;96905.63;107294;1271;138273;-88
2023/08/19 08:16:09;;;;;;;17.50;15.90;;;;;;;21.64;100.00;96905.89;107376;1260;22745;-87
2023/08/19 08:18:36;;;;;;;15.00;13.70;;;;;;;21.71;100.00;96905.91;106915;1272;138623;-87
2023/08/19 08:21:02;;;;;;;16.90;15.40;;;;;;;21.74;100.00;96908.98;107079;1268;22552;-87
2023/08/19 08:23:29;;;;;;;16.10;14.70;;;;;;;21.76;100.00;96909.26;107302;1272;139139;-87
2023/08/19 08:25:55;;;;;;;17.00;15.30;;;;;;;21.82;100.00;96910.84;107317;1271;22536;-89
2023/08/19 08:28:22;;;;;;;16.80;15.40;;;;;;;21.89;100.00;96911.86;107677;1271;23378;-89
2023/08/19 08:30:48;;;;;;;17.30;15.70;;;;;;;21.93;100.00;96910.44;107513;1271;139815;-89
2023/08/19 08:33:15;;;;;;;15.30;13.90;;;;;;;21.98;100.00;96910.10;107647;1266;22521;-87
2023/08/19 08:35:42;;;;;;;17.00;15.40;;;;;;;22.02;100.00;96911.01;107702;1272;139927;-88
2023/08/19 08:38:08;;;;;;;15.30;13.90;;;;;;;22.05;100.00;96908.86;108209;1275;22531;-88
2023/08/19 08:40:35;;;;;;;15.50;14.20;;;;;;;22.11;100.00;96910.48;107205;1279;22553;-88
2023/08/19 08:43:06;;;;;;;15.90;14.30;;;;;;;22.13;100.00;96910.15;107351;1271;139392;-91
2023/08/19 08:45:32;;;;;;;16.50;15.00;;;;;;;22.14;100.00;96914.84;107433;1272;22574;-88
2023/08/19 08:48:00;;;;;;;18.20;16.50;;;;;;;22.17;100.00;96911.27;107372;1272;138535;-86
2023/08/19 08:50:27;;;;;;;17.50;15.80;;;;;;;22.21;100.00;96912.80;107793;1279;23983;-87
2023/08/19 08:52:54;;;;;;;18.10;16.40;;;;;;;22.26;100.00;96911.12;107790;1271;25355;-88
2023/08/19 08:55:21;;;;;;;20.30;18.00;;;;;;;22.30;100.00;96914.27;107481;1279;138484;-88
2023/08/19 08:57:48;;;;;;;19.50;17.50;;;;;;;22.34;100.00;96915.81;107497;1272;22739;-88
2023/08/19 09:00:16;;;;;;;17.80;16.20;;;;;;;22.38;100.00;96915.38;107283;1257;139343;-89
2023/08/19 09:02:43;;;;;;;16.60;14.90;;;;;;;22.41;100.00;96917.33;107113;1262;23498;-89
2023/08/19 09:05:12;;;;;;;16.40;15.10;;;;;;;22.44;100.00;96919.31;107166;1276;25335;-88
2023/08/19 09:07:40;;;;;;;15.70;14.30;;;;;;;22.45;100.00;96916.16;107089;1272;138856;-89
2023/08/19 09:10:15;;;;;;;17.10;15.60;;;;;;;22.46;100.00;96917.83;107168;1279;22521;-89
2023/08/19 09:12:43;;;;;;;16.60;15.20;;;;;;;22.48;100.00;96915.05;107024;1274;139666;-88
2023/08/19 09:15:13;;;;;;;15.90;14.60;;;;;;;22.50;100.00;96917.14;108988;1273;22530;-89
2023/08/19 09:17:40;;;;;;;16.20;14.70;;;;;;;22.53;100.00;96918.73;107113;1273;138579;-88
2023/08/19 09:20:07;;;;;;;18.20;16.50;;;;;;;22.57;100.00;96917.43;107227;1271;22524;-88
2023/08/19 09:22:34;;;;;;;17.40;15.80;;;;;;;22.64;100.00;96914.84;107335;1277;24226;-89
2023/08/19 09:25:05;;;;;;;18.00;16.30;;;;;;;22.73;100.00;96915.89;106995;1272;138527;-89
2023/08/19 09:27:32;;;;;;;16.90;15.40;;;;;;;22.79;100.00;96917.27;107276;1271;22643;-88
2023/08/19 09:29:58;;;;;;;17.60;16.00;;;;;;;22.83;100.00;96914.73;107040;1272;138599;-87
2023/08/19 09:32:29;;;;;;;18.10;16.10;;;;;;;22.89;100.00;96916.19;107374;1265;24207;-88
2023/08/19 09:35:04;;;;;;;16.60;14.90;;;;;;;22.96;100.00;96912.23;107369;1256;22553;-89
2023/08/19 09:37:32;;;;;;;16.70;15.20;;;;;;;23.00;100.00;96914.15;107771;1268;139728;-88
2023/08/19 09:39:59;;;;;;;15.70;14.30;;;;;;;23.04;100.00;96916.25;107787;1272;22484;-89
2023/08/19 09:42:27;;;;;;;16.00;14.50;;;;;;;23.07;100.00;96917.13;107446;1275;138800;-88
2023/08/19 09:44:53;;;;;;;15.40;13.80;;;;;;;23.09;100.00;96921.96;107542;1272;22550;-88
2023/08/19 09:47:21;;;;;;;15.00;13.80;;;;;;;23.09;100.00;96921.48;107515;1272;22602;-89
2023/08/19 09:49:56;;;;;;;16.40;14.90;;;;;;;23.08;100.00;96916.86;107471;1271;138583;-88
2023/08/19 09:52:22;;;;;;;16.40;14.90;;;;;;;23.05;100.00;96915.56;107748;1274;22527;-88
2023/08/19 09:54:53;;;;;;;16.30;14.70;;;;;;;23.02;100.00;96914.75;107497;1271;138833;-89
2023/08/19 09:57:35;;;;;;;16.20;14.80;;;;;;;23.00;100.00;96919.55;107470;1272;22550;-90
2023/08/19 10:00:06;;;;;;;15.70;14.40;;;;;;;22.97;100.00;96927.69;107804;1278;139933;-89
2023/08/19 10:02:34;;;;;;;15.40;14.10;;;;;;;22.94;100.00;96927.38;107729;1272;22528;-90
2023/08/19 10:09:02;;;;;;;15.20;14.10;;;;;;;22.96;100.00;96926.62;108910;1277;22489;-92
2023/08/19 10:11:42;;;;;;;16.40;14.80;;;;;;;22.97;100.00;96925.41;108674;1284;138918;-92
2023/08/19 10:14:32;;;;;;;16.40;14.80;;;;;;;22.99;100.00;96927.71;108584;1280;23472;-91
2023/08/19 10:17:05;;;;;;;15.20;13.90;;;;;;;23.00;100.00;96929.94;108577;1276;22671;-91
2023/08/19 10:19:41;;;;;;;;;;;;;;;23.03;100.00;96925.94;108407;1284;191157;-91
2023/08/19 10:22:21;;;;;;;14.30;13.00;;;;;;;23.09;100.00;96924.26;108616;1282;22514;-92
2023/08/19 10:24:48;;;;;;;14.70;13.50;;;;;;;23.12;100.00;96927.27;108407;1283;139100;-91
2023/08/19 10:27:19;;;;;;;15.90;14.50;;;;;;;23.14;100.00;96929.64;108487;1284;23375;-91
2023/08/19 10:29:46;;;;;;;16.00;14.40;;;;;;;23.16;100.00;96929.48;108018;1284;138635;-91
2023/08/19 10:32:29;;;;;;;15.00;13.60;;;;;;;23.17;100.00;96932.04;108246;1285;23328;-91
2023/08/19 10:35:04;;;;;;;14.80;13.30;;;;;;;23.15;100.00;96923.98;108315;1277;22679;-92
2023/08/19 10:37:32;;;;;;;15.70;14.30;;;;;;;23.16;100.00;96920.37;108093;1276;138344;-91
2023/08/19 10:40:12;;;;;;;15.10;13.60;;;;;;;23.16;100.00;96925.20;108340;1280;22590;-91
2023/08/19 10:42:39;;;;;;;15.20;13.80;;;;;;;23.18;100.00;96924.16;108315;1262;138642;-91
2023/08/19 10:45:16;;;;;;;15.10;13.60;;;;;;;23.21;100.00;96918.66;108400;1280;23326;-92
2023/08/19 10:47:43;;;;;;;14.30;13.10;;;;;;;23.23;100.00;96917.73;108082;1284;138625;-92
2023/08/19 10:50:11;;;;;;;14.60;13.40;;;;;;;23.24;100.00;96921.23;108246;1283;22517;-92
2023/08/19 10:53:00;;;;;;;14.20;13.00;;;;;;;23.26;100.00;96917.40;108221;1284;22494;-92
2023/08/19 10:55:27;;;;;;;14.10;12.80;;;;;;;23.30;100.00;96915.65;108169;1276;138648;-91
2023/08/19 10:57:56;;;;;;;14.40;13.20;;;;;;;23.35;100.00;96916.96;108296;1260;22740;-92
2023/08/19 11:00:31;;;;;;;13.90;12.70;;;;;;;23.39;100.00;96917.84;108292;1280;138426;-92
2023/08/19 11:02:58;;;;;;;14.90;13.70;;;;;;;23.42;100.00;96920.04;108277;1285;22758;-92
2023/08/19 11:05:27;;;;;;;14.10;12.80;;;;;;;23.44;100.00;96918.64;108208;1278;25424;-91
2023/08/19 11:07:55;;;;;;;14.20;12.90;;;;;;;23.45;100.00;96919.79;108297;1284;138305;-90